28 maja 2022

Czas Kod Pogoda Temp. Widoczność Sufit Wiatr METAR/SPECI
6:55 pm
V
54 °F 6¼ mi+ 4.500 ft 340° 340° 14 kt METAR EHLE 281655Z AUTO 34014KT 320V020 9999 -RA FEW033 SCT039 BKN045 12/07 Q1021 TEMPO 7000 -SHRA FEW020TCU
6:25 pm
V
57 °F 6¼ mi+ - 330° 330° 14 kt METAR EHLE 281625Z AUTO 33014KT 290V350 9999 NSC 14/05 Q1020 NOSIG
5:55 pm
V
55 °F 6¼ mi+ - 340° 340° 15 kt METAR EHLE 281555Z AUTO 34015KT 300V020 9999 FEW039 SCT043 13/05 Q1020 NOSIG
5:25 pm
V
55 °F 6¼ mi+ 3.000 ft 350° 350° 13 kt METAR EHLE 281525Z AUTO 35013KT 310V020 9999 BKN030 OVC035 13/06 Q1021 NOSIG
4:55 pm
V
55 °F 6¼ mi+ 3.600 ft 350° 350° 12 kt METAR EHLE 281455Z AUTO 35012KT 310V020 9999 SCT030 BKN036 BKN040 13/06 Q1021 NOSIG
4:25 pm
V
59 °F 6¼ mi+ - 340° 340° 14 kt METAR EHLE 281425Z AUTO 34014KT 300V030 9999 NCD 15/06 Q1021 NOSIG
3:55 pm
V
55 °F 6¼ mi+ 4.600 ft 330° 330° 12 kt METAR EHLE 281355Z AUTO 33012KT 290V360 9999 FEW035 SCT041 BKN046 13/06 Q1021 REDZ NOSIG
3:25 pm
V
55 °F 6¼ mi+ 3.000 ft 320° 320° 10 kt METAR EHLE 281325Z AUTO 32010KT 9999 -RA OVC030 13/07 Q1021 NOSIG
2:55 pm
V
57 °F 6¼ mi+ - 340° 340° 11 kt METAR EHLE 281255Z AUTO 34011KT 310V030 9999 FEW035 SCT040 14/06 Q1021 NOSIG
2:25 pm
V
59 °F 6¼ mi+ 4.100 ft 350° 350° 13 kt METAR EHLE 281225Z AUTO 35013KT 300V030 9999 BKN041 15/05 Q1021 NOSIG
1:55 pm
V
61 °F 6¼ mi+ - 320° 320° 13 - 23 kt METAR EHLE 281155Z AUTO 32013G23KT 280V360 9999 SCT039 SCT044 16/05 Q1021 NOSIG
1:25 pm
V
59 °F 6¼ mi+ - 340° 340° 14 kt METAR EHLE 281125Z AUTO 34014KT 300V010 9999 SCT040 15/05 Q1021 NOSIG
12:55 pm
V
57 °F 6¼ mi+ - 330° 330° 14 kt METAR EHLE 281055Z AUTO 33014KT 290V010 9999 FEW041 14/05 Q1022 NOSIG
12:25 pm
V
59 °F 6¼ mi+ 4.800 ft 320° 320° 15 kt METAR EHLE 281025Z AUTO 32015KT 280V350 9999 SCT038 BKN048 15/06 Q1022 NOSIG
11:55 am
V
59 °F 6¼ mi+ - 330° 330° 13 kt METAR EHLE 280955Z AUTO 33013KT 300V010 9999 SCT035 15/06 Q1022 NOSIG
11:25 am
V
57 °F 6¼ mi+ 4.700 ft 320° 320° 13 kt METAR EHLE 280925Z AUTO 32013KT 270V360 9999 SCT034 BKN047 14/06 Q1022 NOSIG
10:55 am
V
57 °F 6¼ mi+ - 320° 320° 14 kt METAR EHLE 280855Z AUTO 32014KT 290V350 9999 FEW031 14/07 Q1022 NOSIG
10:25 am
V
57 °F 6¼ mi+ - 340° 340° 13 kt METAR EHLE 280825Z AUTO 34013KT 300V040 9999 NCD 14/06 Q1021 NOSIG
9:55 am
V
57 °F 6¼ mi+ - 320° 320° 14 kt METAR EHLE 280755Z AUTO 32014KT 280V350 9999 FEW034 14/06 Q1021 NOSIG
9:25 am
V
55 °F 6¼ mi+ - 320° 320° 13 kt METAR EHLE 280725Z AUTO 32013KT 280V350 9999 FEW028 13/07 Q1021 NOSIG
8:55 am
V
55 °F 6¼ mi+ 3.300 ft 320° 320° 15 kt METAR EHLE 280655Z AUTO 32015KT 290V350 9999 FEW026 BKN033 BKN037 13/07 Q1021 NOSIG
8:25 am
V
54 °F 6¼ mi+ 4.100 ft 310° 310° 15 kt METAR EHLE 280625Z AUTO 31015KT 270V340 9999 SCT025 SCT033 BKN041 12/07 Q1021 NOSIG
7:55 am
V
54 °F 6¼ mi+ - 310° 310° 14 kt METAR EHLE 280555Z AUTO 31014KT 280V350 9999 SCT043 12/06 Q1021 NOSIG
7:25 am
V
54 °F 6¼ mi+ - 310° 310° 14 kt METAR EHLE 280525Z AUTO 31014KT 270V340 9999 NCD 12/06 Q1021 NOSIG
6:55 am
V
52 °F 6¼ mi+ - 310° 310° 13 kt METAR EHLE 280455Z AUTO 31013KT 290V350 9999 NCD 11/06 Q1021 NOSIG
6:25 am
V
52 °F 6¼ mi+ - 310° 310° 14 kt METAR EHLE 280425Z AUTO 31014KT 280V340 9999 FEW040 11/06 Q1021
5:55 am
V
52 °F 6¼ mi+ 3.500 ft 320° 320° 13 kt METAR EHLE 280355Z AUTO 32013KT 280V350 9999 BKN035 11/07 Q1020
5:25 am
V
52 °F 6¼ mi+ - 310° 310° 11 kt METAR EHLE 280325Z AUTO 31011KT 270V350 9999 FEW024 11/07 Q1020
4:55 am
V
52 °F 6¼ mi+ - 320° 320° 11 kt METAR EHLE 280255Z AUTO 32011KT 280V340 9999 NSC 11/07 Q1020
4:25 am
M
54 °F 6¼ mi+ 2.000 ft 310° 310° 14 kt METAR EHLE 280225Z AUTO 31014KT 270V350 9999 BKN020 BKN024 BKN027 12/07 Q1020
3:55 am
M
54 °F 6¼ mi+ 2.800 ft 320° 320° 15 kt METAR EHLE 280155Z AUTO 32015KT 280V350 9999 RA SCT024 BKN028 OVC031 12/08 Q1020
3:25 am
V
55 °F 6¼ mi+ - 310° 310° 16 kt METAR EHLE 280125Z AUTO 31016KT 280V350 9999 SCT024 SCT028 13/08 Q1020
2:55 am
V
55 °F 6¼ mi+ - 290° 290° 14 kt METAR EHLE 280055Z AUTO 29014KT 250V340 9999 NSC 13/08 Q1020
2:25 am
V
54 °F 6¼ mi+ - 290° 290° 11 kt METAR EHLE 280025Z AUTO 29011KT 250V330 9999 NCD 12/08 Q1020
1:55 am
V
54 °F 6¼ mi+ - 280° 280° 10 kt METAR EHLE 272355Z AUTO 28010KT 250V310 9999 FEW024 SCT049 12/08 Q1020
1:25 am
V
54 °F 6¼ mi+ - 280° 280° 8 kt METAR EHLE 272325Z AUTO 28008KT 9999 NCD 12/08 Q1021
12:55 am
V
54 °F 6¼ mi+ - 270° 270° 11 kt METAR EHLE 272255Z AUTO 27011KT 240V300 9999 NSC 12/08 Q1021
12:25 am
V
54 °F 6¼ mi+ - 270° 270° 11 kt METAR EHLE 272225Z AUTO 27011KT 240V300 9999 NSC 12/08 Q1021

27 maja 2022

Czas Kod Pogoda Temp. Widoczność Sufit Wiatr METAR/SPECI
11:55 pm
V
54 °F 6¼ mi+ - 280° 280° 12 kt METAR EHLE 272155Z AUTO 28012KT 250V310 9999 NSC 12/07 Q1021
11:25 pm
V
55 °F 6¼ mi+ - 280° 280° 10 kt METAR EHLE 272125Z AUTO 28010KT 250V310 9999 NSC 13/08 Q1021
10:55 pm
V
55 °F 6¼ mi+ - 270° 270° 10 kt METAR EHLE 272055Z AUTO 27010KT 240V300 9999 NSC 13/08 Q1022
10:25 pm
V
55 °F 6¼ mi+ - 290° 290° 11 kt METAR EHLE 272025Z AUTO 29011KT 250V320 9999 NCD 13/07 Q1022 NOSIG
9:55 pm
V
55 °F 6¼ mi+ - 280° 280° 12 kt METAR EHLE 271955Z AUTO 28012KT 250V310 9999 FEW042 13/07 Q1022 NOSIG
9:25 pm
V
57 °F 6¼ mi+ - 290° 290° 13 kt METAR EHLE 271925Z AUTO 29013KT 250V350 9999 FEW033 14/07 Q1021 NOSIG
8:55 pm
V
57 °F 6¼ mi+ 4.300 ft 290° 290° 12 kt METAR EHLE 271855Z AUTO 29012KT 250V330 9999 FEW031 SCT038 BKN043 14/07 Q1022 NOSIG
8:25 pm
V
57 °F 6¼ mi+ 3.800 ft 290° 290° 14 kt METAR EHLE 271825Z AUTO 29014KT 260V330 9999 SCT032 BKN038 BKN043 14/06 Q1021 NOSIG
7:55 pm
V
57 °F 6¼ mi+ 3.800 ft 290° 290° 12 kt METAR EHLE 271755Z AUTO 29012KT 250V330 9999 SCT033 BKN038 BKN043 14/07 Q1022 NOSIG
7:25 pm
V
59 °F 6¼ mi+ 4.500 ft 300° 300° 14 kt METAR EHLE 271725Z AUTO 30014KT 270V350 9999 SCT032 BKN045 15/07 Q1022 NOSIG
6:55 pm
V
57 °F 6¼ mi+ 3.900 ft 300° 300° 16 kt METAR EHLE 271655Z AUTO 30016KT 260V340 9999 SCT032 BKN039 BKN044 14/07 Q1022 NOSIG
6:25 pm
V
59 °F 6¼ mi+ 4.800 ft 300° 300° 16 kt METAR EHLE 271625Z AUTO 30016KT 270V350 9999 FEW034 BKN048 15/06 Q1022 NOSIG
5:55 pm
V
57 °F 6¼ mi+ 3.300 ft 290° 290° 14 - 25 kt METAR EHLE 271555Z AUTO 29014G25KT 250V330 9999 BKN033 BKN038 BKN042 14/07 Q1022 NOSIG
5:25 pm
V
57 °F 6¼ mi+ 4.400 ft 290° 290° 16 kt METAR EHLE 271525Z AUTO 29016KT 250V340 9999 SCT031 BKN044 BKN049 14/07 Q1022 NOSIG
4:55 pm
V
57 °F 6¼ mi+ 3.600 ft 290° 290° 17 kt METAR EHLE 271455Z AUTO 29017KT 250V330 9999 SCT031 BKN036 BKN041 14/07 Q1022 NOSIG
4:25 pm
V
59 °F 6¼ mi+ 4.200 ft 290° 290° 15 - 25 kt METAR EHLE 271425Z AUTO 29015G25KT 240V330 9999 SCT031 SCT037 BKN042 15/07 Q1022 NOSIG
3:55 pm
V
59 °F 6¼ mi+ - 290° 290° 16 kt METAR EHLE 271355Z AUTO 29016KT 250V330 9999 FEW031 SCT044 15/07 Q1021 NOSIG
3:25 pm
V
57 °F 6¼ mi+ - 290° 290° 16 kt METAR EHLE 271325Z AUTO 29016KT 250V320 9999 FEW033 14/07 Q1021 NOSIG
2:55 pm
V
59 °F 6¼ mi+ 4.400 ft 280° 280° 18 kt METAR EHLE 271255Z AUTO 28018KT 250V320 9999 FEW034 BKN044 15/08 Q1021 NOSIG
2:25 pm
V
59 °F 6¼ mi+ - 280° 280° 17 kt METAR EHLE 271225Z AUTO 28017KT 240V320 9999 FEW036 SCT044 15/07 Q1021 NOSIG
1:55 pm
V
59 °F 6¼ mi+ - 280° 280° 16 kt METAR EHLE 271155Z AUTO 28016KT 230V330 9999 FEW036 15/06 Q1021 NOSIG
1:25 pm
V
59 °F 6¼ mi+ - 290° 290° 16 kt METAR EHLE 271125Z AUTO 29016KT 250V330 9999 FEW036 15/08 Q1021 NOSIG
12:55 pm
V
59 °F 6¼ mi+ - 280° 280° 18 kt METAR EHLE 271055Z AUTO 28018KT 240V320 9999 FEW032 15/07 Q1020 NOSIG
12:25 pm
V
57 °F 6¼ mi+ 4.200 ft 290° 290° 16 kt METAR EHLE 271025Z AUTO 29016KT 260V330 9999 SCT031 SCT037 BKN042 14/07 Q1020 NOSIG
11:55 am
V
59 °F 6¼ mi+ - 280° 280° 15 kt METAR EHLE 270955Z AUTO 28015KT 240V310 9999 SCT034 15/07 Q1020 NOSIG
11:25 am
V
59 °F 6¼ mi+ - 290° 290° 15 kt METAR EHLE 270925Z AUTO 29015KT 250V330 9999 SCT034 SCT040 15/07 Q1020 NOSIG
10:55 am
V
59 °F 6¼ mi+ - 290° 290° 14 kt METAR EHLE 270855Z AUTO 29014KT 240V350 9999 FEW033 15/08 Q1020 NOSIG
10:25 am
V
57 °F 6¼ mi+ 3.700 ft 290° 290° 12 kt METAR EHLE 270825Z AUTO 29012KT 260V340 9999 SCT032 BKN037 OVC041 14/07 Q1020 NOSIG
9:55 am
V
57 °F 6¼ mi+ 4.100 ft 290° 290° 15 kt METAR EHLE 270755Z AUTO 29015KT 240V330 9999 SCT036 BKN041 14/07 Q1020 NOSIG
9:25 am
V
57 °F 6¼ mi+ - 290° 290° 12 kt METAR EHLE 270725Z AUTO 29012KT 250V320 9999 FEW036 SCT041 14/07 Q1019 NOSIG
8:55 am
V
57 °F 6¼ mi+ - 290° 290° 13 kt METAR EHLE 270655Z AUTO 29013KT 260V330 9999 FEW034 14/07 Q1019 NOSIG
8:25 am
V
57 °F 6¼ mi+ - 280° 280° 16 kt METAR EHLE 270625Z AUTO 28016KT 250V330 9999 FEW031 14/07 Q1019 NOSIG
7:55 am
V
57 °F 6¼ mi+ - 290° 290° 12 kt METAR EHLE 270555Z AUTO 29012KT 250V320 9999 NSC 14/09 Q1019 NOSIG
7:25 am
V
57 °F 6¼ mi+ - 290° 290° 11 kt METAR EHLE 270525Z AUTO 29011KT 250V330 9999 FEW021 14/10 Q1018 NOSIG
6:55 am
V
57 °F 6¼ mi+ - 290° 290° 10 kt METAR EHLE 270455Z AUTO 29010KT 240V320 9999 NSC 14/10 Q1018
6:25 am
V
55 °F 6¼ mi+ - 280° 280° 10 kt METAR EHLE 270425Z AUTO 28010KT 240V330 9999 FEW024 13/10 Q1018
5:55 am
V
57 °F 6¼ mi+ 4.400 ft 280° 280° 9 kt METAR EHLE 270355Z AUTO 28009KT 260V320 9999 BKN044 OVC049 14/10 Q1018
5:25 am
V
55 °F 6¼ mi+ 4.300 ft 280° 280° 9 kt METAR EHLE 270325Z AUTO 28009KT 260V320 9999 BKN043 BKN049 13/11 Q1018
4:55 am
M
57 °F 6¼ mi+ 2.100 ft 280° 280° 9 kt METAR EHLE 270255Z AUTO 28009KT 250V320 9999 SCT016 BKN021 BKN025 14/11 Q1018
4:25 am
M
57 °F 6¼ mi+ 2.000 ft 280° 280° 9 kt METAR EHLE 270225Z AUTO 28009KT 260V320 9999 SCT016 BKN020 14/12 Q1018
3:55 am
V
57 °F 6¼ mi+ - 270° 270° 11 kt METAR EHLE 270155Z AUTO 27011KT 240V300 9999 NSC 14/12 Q1018
3:25 am
M
55 °F 6¼ mi+ 1.900 ft 270° 270° 11 kt METAR EHLE 270125Z AUTO 27011KT 240V310 9999 SCT015 BKN019 BKN025 13/12 Q1018
2:55 am
M
57 °F 6¼ mi+ 1.200 ft 260° 260° 12 kt METAR EHLE 270055Z AUTO 26012KT 9999 FEW008 SCT010 BKN012 14/13 Q1018
2:25 am
I
57 °F 6¼ mi+ 900 ft 260° 260° 11 kt METAR EHLE 270025Z AUTO 26011KT 230V290 9999 SCT007 BKN009 OVC010 14/13 Q1018 REDZ
1:55 am
V
57 °F 6¼ mi+ 4.700 ft 270° 270° 12 kt METAR EHLE 262355Z AUTO 27012KT 230V310 9999 -RADZ FEW015CB SCT038 BKN047 14/13 Q1018 RERA REDZ
1:25 am
M
59 °F 3⅛ mi 1.200 ft 270° 270° 18 kt METAR EHLE 262325Z AUTO 27018KT 230V310 5000 SHRA SCT010 BKN012 FEW015CB OVC028 15/13 Q1018 REDZ
12:55 am
M
59 °F 6¼ mi+ 1.600 ft 240° 240° 14 kt METAR EHLE 262255Z AUTO 24014KT 210V280 9999 RA BKN016 OVC020 15/14 Q1018 RERA REDZ
12:25 am
M
59 °F 6¼ mi+ 2.000 ft 230° 230° 13 kt METAR EHLE 262225Z AUTO 23013KT 210V270 9999 DZ FEW015CB SCT016 BKN020 OVC032 15/13 Q1018

26 maja 2022

Czas Kod Pogoda Temp. Widoczność Sufit Wiatr METAR/SPECI
11:55 pm
M
59 °F 6¼ mi+ 2.100 ft 230° 230° 12 kt METAR EHLE 262155Z AUTO 23012KT 190V260 9999 -RADZ SCT016 BKN021 BKN026 15/13 Q1018 RERA REDZ
11:25 pm
V
59 °F 6¼ mi+ - 230° 230° 13 kt METAR EHLE 262125Z AUTO 23013KT 190V260 9999 FEW017 SCT038 15/13 Q1018
10:55 pm
V
59 °F 6¼ mi+ 3.200 ft 230° 230° 12 kt METAR EHLE 262055Z AUTO 23012KT 200V260 9999 FEW018 SCT023 BKN032 15/13 Q1018
10:25 pm
V
61 °F 6¼ mi+ 4.400 ft 240° 240° 15 kt METAR EHLE 262025Z AUTO 24015KT 210V280 9999 FEW018 SCT031 BKN044 16/12 Q1018
9:55 pm
V
61 °F 6¼ mi+ 3.700 ft 240° 240° 16 kt METAR EHLE 261955Z AUTO 24016KT 190V290 9999 SCT032 BKN037 BKN043 16/12 Q1018
9:25 pm
V
61 °F 6¼ mi+ 3.300 ft 240° 240° 17 kt METAR EHLE 261925Z AUTO 24017KT 210V270 9999 -RA BKN033 BKN043 BKN048 16/12 Q1018 NOSIG
8:55 pm
V
61 °F 6¼ mi+ 3.100 ft 240° 240° 15 kt METAR EHLE 261855Z AUTO 24015KT 200V270 9999 FEW024 OVC031 16/12 Q1018 NOSIG
8:25 pm
M
63 °F 6¼ mi+ 2.500 ft 240° 240° 14 kt METAR EHLE 261825Z AUTO 24014KT 200V280 9999 BKN025 BKN030 OVC036 17/12 Q1018 NOSIG
7:55 pm
M
63 °F 6¼ mi+ 2.800 ft 240° 240° 15 kt METAR EHLE 261755Z AUTO 24015KT 9999 SCT025 BKN028 BKN032 17/12 Q1018 NOSIG
7:25 pm
V
63 °F 6¼ mi+ 3.300 ft 240° 240° 13 kt METAR EHLE 261725Z AUTO 24013KT 190V270 9999 SCT027 OVC033 17/11 Q1018 NOSIG
6:55 pm
M
63 °F 6¼ mi+ 2.900 ft 250° 250° 16 kt METAR EHLE 261655Z AUTO 25016KT 9999 BKN029 BKN033 BKN039 17/11 Q1019 NOSIG
6:25 pm
M
63 °F 6¼ mi+ 2.900 ft 240° 240° 14 kt METAR EHLE 261625Z AUTO 24014KT 210V280 9999 BKN029 OVC033 17/11 Q1019 NOSIG
5:55 pm
V
63 °F 6¼ mi+ 3.000 ft 260° 260° 16 kt METAR EHLE 261555Z AUTO 26016KT 230V300 9999 BKN030 BKN035 17/11 Q1019 NOSIG
5:25 pm
V
63 °F 6¼ mi+ 3.000 ft 250° 250° 16 kt METAR EHLE 261525Z AUTO 25016KT 210V290 9999 BKN030 OVC035 17/10 Q1019 NOSIG
4:55 pm
V
64 °F 6¼ mi+ - 250° 250° 17 kt METAR EHLE 261455Z AUTO 25017KT 220V290 9999 FEW031 18/11 Q1019 NOSIG
Starsze dane

Pobierz naszą aplikację

Łatwy dostęp do całej pogody lotniczej na telefonie komórkowym i tablecie.
Z wieloma funkcjami niedostępnymi na stronie internetowej, takimi jak wsparcie offline i osobista lista lotnisk.

My i osoby trzecie śledzimy twoje zachowanie w internecie na naszej stronie za pomocą plików cookie. Jeśli kontynuujesz, zakładamy, że zgadzasz się z naszą polityką plików cookie. Dowiedz się więcej